Time;durP1;ratioP1;P1;durP2;ratioP2;P2;SDS_P1;SDS_P2;PMS_P1;PMS_P2;Temp;Humidity;BMP_temperature;BMP_pressure;BME280_temperature;BME280_humidity;BME280_pressure;Samples;Min_cycle;Max_cycle;Signal;HPM_P1;HPM_P2
2021/12/19 00:00:23;;;;;;;26.40;24.60;;;;;;;;;;5095880;28;20201;-76
2021/12/19 00:03:07;;;;;;;25.97;24.37;;;;;;;;;;5095764;28;20198;-74
2021/12/19 00:08:33;;;;;;;25.13;23.67;;;;;;;;;;5096596;28;20220;-74
2021/12/19 00:10:59;;;;;;;25.73;24.23;;;;;;;;;;5095712;28;20208;-75
2021/12/19 00:13:28;;;;;;;23.33;22.13;;;;;;;;;;5096128;28;20239;-74
2021/12/19 00:15:55;;;;;;;28.17;26.87;;;;;;;;;;5095516;28;20194;-75
2021/12/19 00:18:21;;;;;;;27.00;25.60;;;;;;;;;;5095510;28;20282;-74
2021/12/19 00:20:48;;;;;;;27.67;26.17;;;;;;;;;;5096019;28;20270;-73
2021/12/19 00:23:15;;;;;;;24.40;23.20;;;;;;;;;;5095281;28;20258;-75
2021/12/19 00:25:42;;;;;;;24.03;22.83;;;;;;;;;;5095715;28;20194;-73
2021/12/19 00:28:09;;;;;;;21.17;20.17;;;;;;;;;;5095238;28;20233;-73
2021/12/19 00:30:37;;;;;;;24.60;23.20;;;;;;;;;;5095496;28;20770;-73
2021/12/19 00:33:04;;;;;;;22.77;21.67;;;;;;;;;;5095244;28;20556;-74
2021/12/19 00:35:31;;;;;;;22.07;20.97;;;;;;;;;;5095478;28;20259;-73
2021/12/19 00:37:58;;;;;;;21.77;20.47;;;;;;;;;;5095148;28;20201;-73
2021/12/19 00:40:24;;;;;;;28.00;26.60;;;;;;;;;;5095060;28;20224;-75
2021/12/19 00:43:02;;;;;;;27.43;26.03;;;;;;;;;;5095063;28;20229;-73
2021/12/19 00:45:31;;;;;;;22.93;21.57;;;;;;;;;;5095389;28;20186;-73
2021/12/19 00:48:00;;;;;;;23.27;21.87;;;;;;;;;;5094959;28;20198;-73
2021/12/19 00:50:28;;;;;;;21.63;20.33;;;;;;;;;;5094450;28;20229;-73
2021/12/19 00:52:54;;;;;;;24.30;22.90;;;;;;;;;;5095131;28;20194;-72
2021/12/19 00:55:22;;;;;;;26.13;24.53;;;;;;;;;;5094796;28;20656;-72
2021/12/19 00:57:50;;;;;;;23.53;22.13;;;;;;;;;;5094718;28;20197;-75
2021/12/19 01:00:18;;;;;;;26.67;25.07;;;;;;;;;;5095020;28;20255;-72
2021/12/19 01:02:44;;;;;;;25.40;23.90;;;;;;;;;;5095178;28;20229;-72
2021/12/19 01:05:13;;;;;;;25.40;23.80;;;;;;;;;;5094984;28;20272;-73
2021/12/19 01:07:40;;;;;;;23.57;22.17;;;;;;;;;;5094810;28;20672;-72
2021/12/19 01:10:08;;;;;;;22.97;21.67;;;;;;;;;;5094771;28;20264;-74
2021/12/19 01:12:37;;;;;;;26.53;24.87;;;;;;;;;;5094781;28;20642;-72
2021/12/19 01:15:04;;;;;;;24.27;22.87;;;;;;;;;;5094433;28;20684;-72
2021/12/19 01:17:31;;;;;;;21.27;20.07;;;;;;;;;;5094364;28;20232;-77
2021/12/19 01:19:57;;;;;;;23.43;22.03;;;;;;;;;;5094660;28;20221;-76
2021/12/19 01:22:26;;;;;;;24.23;22.93;;;;;;;;;;5094100;28;20272;-72
2021/12/19 01:24:52;;;;;;;27.30;25.80;;;;;;;;;;5094581;28;20190;-73
2021/12/19 01:27:19;;;;;;;24.70;23.20;;;;;;;;;;5094817;28;20236;-71
2021/12/19 01:29:46;;;;;;;25.60;24.20;;;;;;;;;;5094410;28;20286;-72
2021/12/19 01:32:12;;;;;;;26.20;24.67;;;;;;;;;;5094137;28;20233;-74
2021/12/19 01:34:39;;;;;;;27.33;25.73;;;;;;;;;;5094074;28;20680;-73
2021/12/19 01:37:06;;;;;;;27.13;25.63;;;;;;;;;;5094384;28;20194;-72
2021/12/19 01:39:34;;;;;;;28.17;26.47;;;;;;;;;;5093938;28;20731;-72
2021/12/19 01:42:01;;;;;;;24.47;22.97;;;;;;;;;;5094243;28;20281;-77
2021/12/19 01:44:27;;;;;;;22.90;21.60;;;;;;;;;;5094381;28;20278;-74
2021/12/19 01:46:54;;;;;;;25.17;23.67;;;;;;;;;;5094153;28;20250;-71
2021/12/19 01:49:22;;;;;;;26.73;25.23;;;;;;;;;;5093993;28;20225;-72
2021/12/19 01:51:49;;;;;;;27.30;25.80;;;;;;;;;;5093682;28;20706;-72
2021/12/19 01:54:16;;;;;;;25.57;24.07;;;;;;;;;;5093739;28;20251;-74
2021/12/19 01:56:44;;;;;;;25.17;23.77;;;;;;;;;;5093940;28;20229;-71
2021/12/19 01:59:11;;;;;;;24.03;22.53;;;;;;;;;;5094459;28;20255;-71
2021/12/19 02:01:41;;;;;;;24.63;23.23;;;;;;;;;;5093786;28;20190;-72
2021/12/19 02:04:07;;;;;;;24.47;23.07;;;;;;;;;;5092890;28;20193;-75
2021/12/19 02:06:34;;;;;;;25.93;24.43;;;;;;;;;;5093756;28;20307;-79
2021/12/19 02:09:05;;;;;;;23.80;22.40;;;;;;;;;;5093634;28;20221;-77
2021/12/19 02:11:33;;;;;;;25.13;23.73;;;;;;;;;;5093391;28;20190;-79
2021/12/19 02:14:01;;;;;;;26.80;25.00;;;;;;;;;;5093269;28;20236;-78
2021/12/19 02:16:28;;;;;;;25.63;24.03;;;;;;;;;;5093536;28;20255;-79
2021/12/19 02:18:55;;;;;;;25.17;23.67;;;;;;;;;;5093544;28;20292;-79
2021/12/19 02:21:23;;;;;;;25.97;24.47;;;;;;;;;;5093500;28;20234;-78
2021/12/19 02:23:49;;;;;;;28.73;26.93;;;;;;;;;;5093157;28;20321;-79
2021/12/19 02:26:16;;;;;;;28.63;27.07;;;;;;;;;;5093325;28;20276;-77
2021/12/19 02:28:43;;;;;;;27.13;25.43;;;;;;;;;;5093252;28;20221;-79
2021/12/19 02:31:10;;;;;;;26.60;25.03;;;;;;;;;;5092914;28;20655;-77
2021/12/19 02:33:41;;;;;;;28.50;26.80;;;;;;;;;;5092924;28;20219;-79
2021/12/19 02:36:22;;;;;;;32.00;28.90;;;;;;;;;;5092930;28;20189;-79
2021/12/19 02:39:32;;;;;;;27.00;25.07;;;;;;;;;;5092911;28;20190;-78
2021/12/19 02:50:13;;;;;;;28.43;26.73;;;;;;;;;;5092696;28;20254;-79
2021/12/19 02:52:40;;;;;;;26.77;25.27;;;;;;;;;;5092586;28;20224;-80
2021/12/19 02:55:09;;;;;;;25.77;24.27;;;;;;;;;;5092867;28;20229;-78
2021/12/19 02:57:38;;;;;;;26.17;24.57;;;;;;;;;;5092478;28;20236;-78
2021/12/19 03:00:07;;;;;;;26.80;25.23;;;;;;;;;;5092451;28;20201;-78
2021/12/19 03:02:34;;;;;;;25.87;24.27;;;;;;;;;;5092482;28;20189;-78
2021/12/19 03:05:02;;;;;;;25.53;24.13;;;;;;;;;;5092671;28;20226;-79
2021/12/19 03:07:29;;;;;;;23.57;22.07;;;;;;;;;;5092671;28;20190;-80
2021/12/19 03:10:11;;;;;;;22.17;20.77;;;;;;;;;;5092569;28;20583;-79
2021/12/19 03:12:55;;;;;;;24.10;22.80;;;;;;;;;;5092684;28;20190;-79
2021/12/19 03:18:06;;;;;;;24.50;23.10;;;;;;;;;;5092350;28;20668;-79
2021/12/19 03:20:34;;;;;;;24.53;23.03;;;;;;;;;;5092603;28;20229;-79
2021/12/19 03:23:01;;;;;;;27.23;25.73;;;;;;;;;;5092230;28;20316;-79
2021/12/19 03:25:30;;;;;;;25.63;24.03;;;;;;;;;;5092549;28;20193;-78
2021/12/19 03:27:58;;;;;;;23.10;21.80;;;;;;;;;;5092470;28;20228;-76
2021/12/19 03:30:25;;;;;;;22.83;21.23;;;;;;;;;;5092383;28;20283;-77
2021/12/19 03:32:52;;;;;;;23.60;22.20;;;;;;;;;;5092141;28;20289;-78
2021/12/19 03:35:18;;;;;;;24.50;23.13;;;;;;;;;;5092037;28;20770;-79
2021/12/19 03:37:45;;;;;;;23.53;22.10;;;;;;;;;;5092098;28;20194;-79
2021/12/19 03:40:21;;;;;;;25.00;23.60;;;;;;;;;;5092261;28;20190;-73
2021/12/19 03:42:51;;;;;;;26.33;24.93;;;;;;;;;;5092052;28;20272;-79
2021/12/19 03:45:21;;;;;;;31.23;29.70;;;;;;;;;;5092755;28;20574;-78
2021/12/19 03:47:47;;;;;;;26.00;24.60;;;;;;;;;;5092208;28;20680;-72
2021/12/19 03:50:18;;;;;;;28.23;26.83;;;;;;;;;;5092137;28;20317;-77
2021/12/19 03:52:45;;;;;;;24.53;23.23;;;;;;;;;;5091939;28;20652;-78
2021/12/19 03:55:12;;;;;;;26.37;24.97;;;;;;;;;;5091952;28;20576;-79
2021/12/19 03:57:39;;;;;;;29.07;27.30;;;;;;;;;;5092122;28;20273;-77
2021/12/19 04:00:07;;;;;;;28.87;27.37;;;;;;;;;;5092363;28;20201;-79
2021/12/19 04:02:35;;;;;;;29.37;27.80;;;;;;;;;;5091769;28;20549;-79
2021/12/19 04:05:02;;;;;;;29.03;27.53;;;;;;;;;;5091734;28;20286;-79
2021/12/19 04:07:29;;;;;;;26.03;24.63;;;;;;;;;;5092062;28;20198;-77
2021/12/19 04:09:56;;;;;;;26.67;24.97;;;;;;;;;;5091935;28;20265;-78
2021/12/19 04:12:25;;;;;;;25.13;23.67;;;;;;;;;;5092072;28;20677;-79
2021/12/19 04:14:52;;;;;;;26.63;25.20;;;;;;;;;;5091947;28;20190;-80
2021/12/19 04:17:19;;;;;;;25.03;23.53;;;;;;;;;;5091721;28;20676;-78
2021/12/19 04:19:47;;;;;;;25.37;23.77;;;;;;;;;;5091697;28;20286;-77
2021/12/19 04:22:14;;;;;;;23.87;22.37;;;;;;;;;;5091438;28;21159;-76
2021/12/19 04:24:40;;;;;;;23.33;21.93;;;;;;;;;;5091595;28;20372;-78
2021/12/19 04:27:07;;;;;;;22.97;21.67;;;;;;;;;;5094415;28;20297;-80
2021/12/19 04:29:34;;;;;;;23.37;21.97;;;;;;;;;;5095478;28;20592;-80
2021/12/19 04:32:00;;;;;;;21.67;20.43;;;;;;;;;;5095596;28;20247;-78
2021/12/19 04:34:27;;;;;;;23.17;21.77;;;;;;;;;;5095178;28;20297;-74
2021/12/19 04:37:02;;;;;;;22.73;21.33;;;;;;;;;;5095234;28;20676;-78
2021/12/19 04:39:38;;;;;;;23.87;22.40;;;;;;;;;;5095180;28;20201;-79
2021/12/19 04:53:16;;;;;;;20.97;19.77;;;;;;;;;;5095029;28;20212;-79
2021/12/19 05:04:36;;;;;;;23.07;21.67;;;;;;;;;;5074663;28;20201;-78
2021/12/19 05:15:15;;;;;;;24.90;23.40;;;;;;;;;;5095447;28;20189;-72
2021/12/19 05:17:42;;;;;;;25.97;24.37;;;;;;;;;;5094777;28;20271;-77
2021/12/19 05:20:14;;;;;;;26.73;25.13;;;;;;;;;;5094668;28;20194;-75
2021/12/19 05:22:49;;;;;;;24.30;22.80;;;;;;;;;;5094428;28;20654;-77
2021/12/19 05:25:18;;;;;;;23.60;22.20;;;;;;;;;;5094633;28;20190;-73
2021/12/19 05:27:46;;;;;;;26.87;25.27;;;;;;;;;;5094485;28;20193;-78
2021/12/19 05:30:13;;;;;;;25.37;23.87;;;;;;;;;;5094450;28;20264;-77
2021/12/19 05:32:41;;;;;;;26.37;24.77;;;;;;;;;;5094148;28;20197;-75
2021/12/19 05:35:09;;;;;;;24.93;23.43;;;;;;;;;;5094363;28;20248;-73
2021/12/19 05:45:49;;;;;;;25.83;24.33;;;;;;;;;;5094297;28;20189;-76
2021/12/19 05:48:16;;;;;;;24.90;23.40;;;;;;;;;;5093814;28;20741;-73
2021/12/19 05:50:42;;;;;;;31.37;29.67;;;;;;;;;;5094255;28;20229;-74
2021/12/19 05:53:10;;;;;;;33.97;31.97;;;;;;;;;;5093758;28;20233;-72
2021/12/19 05:55:38;;;;;;;29.47;27.87;;;;;;;;;;5093640;28;20288;-74
2021/12/19 05:58:05;;;;;;;26.93;25.53;;;;;;;;;;5093633;28;20237;-75
2021/12/19 06:00:33;;;;;;;24.83;23.53;;;;;;;;;;5093566;28;20216;-78
2021/12/19 06:03:00;;;;;;;23.23;22.03;;;;;;;;;;5093826;28;20194;-75
2021/12/19 06:05:27;;;;;;;25.70;24.30;;;;;;;;;;5093739;28;20698;-74
2021/12/19 06:07:53;;;;;;;27.07;25.63;;;;;;;;;;5093692;28;20193;-79
2021/12/19 06:10:21;;;;;;;26.97;25.43;;;;;;;;;;5093310;28;20313;-72
2021/12/19 06:12:49;;;;;;;25.43;24.13;;;;;;;;;;5093266;28;20194;-78
2021/12/19 06:15:15;;;;;;;28.10;26.60;;;;;;;;;;5093615;28;20352;-74
2021/12/19 06:17:44;;;;;;;27.10;25.70;;;;;;;;;;5093556;28;20253;-77
2021/12/19 06:20:11;;;;;;;29.03;27.50;;;;;;;;;;5093140;28;20568;-76
2021/12/19 06:22:38;;;;;;;29.87;28.27;;;;;;;;;;5093075;28;20726;-73
2021/12/19 06:25:05;;;;;;;30.70;28.80;;;;;;;;;;5093052;28;20644;-78
2021/12/19 06:27:32;;;;;;;29.97;28.37;;;;;;;;;;5093376;28;20193;-77
2021/12/19 06:30:00;;;;;;;26.70;25.23;;;;;;;;;;5093211;28;20252;-78
2021/12/19 06:32:27;;;;;;;27.83;26.43;;;;;;;;;;5092974;28;20194;-78
2021/12/19 06:34:54;;;;;;;25.97;24.67;;;;;;;;;;5093246;28;20560;-78
2021/12/19 06:37:20;;;;;;;27.57;26.07;;;;;;;;;;5093158;28;20194;-78
2021/12/19 06:39:47;;;;;;;28.47;26.97;;;;;;;;;;5093938;28;20194;-78
2021/12/19 06:42:15;;;;;;;26.93;25.53;;;;;;;;;;5093121;28;20276;-78
2021/12/19 06:44:42;;;;;;;28.23;26.73;;;;;;;;;;5092757;28;20196;-79
2021/12/19 06:47:10;;;;;;;29.80;28.00;;;;;;;;;;5093042;28;20251;-78
2021/12/19 06:49:37;;;;;;;31.47;29.67;;;;;;;;;;5092347;28;20229;-79
2021/12/19 06:52:04;;;;;;;36.07;33.43;;;;;;;;;;5092583;28;20286;-78
2021/12/19 06:54:31;;;;;;;31.30;29.50;;;;;;;;;;5092563;28;20240;-76
2021/12/19 06:56:57;;;;;;;31.97;29.97;;;;;;;;;;5092526;28;20194;-77
2021/12/19 06:59:24;;;;;;;32.40;30.43;;;;;;;;;;5092792;28;20189;-79
2021/12/19 07:01:51;;;;;;;36.10;32.90;;;;;;;;;;5092436;28;20701;-78
2021/12/19 07:04:19;;;;;;;32.73;30.73;;;;;;;;;;5092769;28;20194;-79
2021/12/19 07:06:45;;;;;;;30.33;28.17;;;;;;;;;;5092460;28;20194;-79
2021/12/19 07:09:12;;;;;;;28.83;27.13;;;;;;;;;;5092728;28;20233;-79
2021/12/19 07:11:39;;;;;;;28.60;26.80;;;;;;;;;;5092522;28;20321;-79
2021/12/19 07:14:06;;;;;;;28.03;26.33;;;;;;;;;;5092336;28;20718;-80
2021/12/19 07:16:32;;;;;;;26.83;25.33;;;;;;;;;;5092583;28;20315;-80
2021/12/19 07:18:59;;;;;;;26.57;25.07;;;;;;;;;;5092753;28;20288;-79
2021/12/19 07:21:29;;;;;;;24.30;22.80;;;;;;;;;;5092364;28;20280;-79
2021/12/19 07:23:56;;;;;;;25.73;24.33;;;;;;;;;;5092158;28;20226;-77
2021/12/19 07:26:23;;;;;;;24.87;23.57;;;;;;;;;;5092819;28;20206;-80
2021/12/19 07:28:50;;;;;;;25.33;24.03;;;;;;;;;;5092212;28;20284;-79
2021/12/19 07:31:17;;;;;;;26.33;24.93;;;;;;;;;;5092000;28;20225;-79
2021/12/19 07:33:45;;;;;;;26.70;25.27;;;;;;;;;;5092431;28;20194;-79
2021/12/19 07:36:12;;;;;;;27.13;25.53;;;;;;;;;;5092226;28;20289;-80
2021/12/19 07:38:51;;;;;;;25.63;24.30;;;;;;;;;;5092398;28;20224;-80
2021/12/19 07:41:18;;;;;;;24.53;23.33;;;;;;;;;;5092034;28;20197;-81
2021/12/19 07:43:45;;;;;;;26.60;25.20;;;;;;;;;;5092084;28;20193;-80
2021/12/19 07:46:11;;;;;;;23.13;21.73;;;;;;;;;;5092309;28;20197;-80
2021/12/19 07:48:38;;;;;;;23.17;21.97;;;;;;;;;;5092224;28;20684;-80
2021/12/19 07:51:05;;;;;;;25.20;23.90;;;;;;;;;;5092188;28;20260;-80
2021/12/19 07:53:32;;;;;;;23.00;21.13;;;;;;;;;;5092209;28;20189;-80
2021/12/19 07:56:00;;;;;;;22.07;20.77;;;;;;;;;;5091914;28;20281;-79
2021/12/19 07:58:27;;;;;;;20.47;19.27;;;;;;;;;;5091893;28;20231;-78
2021/12/19 08:00:53;;;;;;;19.37;18.27;;;;;;;;;;5094863;28;20225;-81
2021/12/19 08:03:20;;;;;;;20.17;18.97;;;;;;;;;;5096161;28;20194;-81
2021/12/19 08:05:48;;;;;;;20.70;19.43;;;;;;;;;;5095916;28;20233;-80
2021/12/19 08:08:18;;;;;;;21.23;19.90;;;;;;;;;;5095792;28;20660;-80
2021/12/19 08:13:30;;;;;;;31.33;22.07;;;;;;;;;;5096374;28;20185;-81
2021/12/19 08:15:57;;;;;;;20.70;19.10;;;;;;;;;;5095914;28;20664;-81
2021/12/19 08:18:23;;;;;;;21.37;19.97;;;;;;;;;;5095924;28;20198;-81
2021/12/19 08:20:50;;;;;;;23.40;22.00;;;;;;;;;;5095826;28;20198;-80
2021/12/19 08:23:17;;;;;;;21.30;20.10;;;;;;;;;;5095467;28;20241;-81
2021/12/19 08:25:43;;;;;;;24.20;22.70;;;;;;;;;;5095468;28;20194;-80
2021/12/19 08:28:10;;;;;;;22.23;20.93;;;;;;;;;;5095693;28;20190;-79
2021/12/19 08:30:38;;;;;;;22.90;21.40;;;;;;;;;;5095825;28;20225;-81
2021/12/19 08:33:05;;;;;;;23.90;22.50;;;;;;;;;;5095584;28;20233;-72
2021/12/19 08:35:33;;;;;;;26.90;24.83;;;;;;;;;;5095578;28;20197;-81
2021/12/19 08:37:59;;;;;;;24.17;22.87;;;;;;;;;;5095823;28;20201;-81
2021/12/19 08:40:27;;;;;;;25.33;23.97;;;;;;;;;;5095460;28;20285;-81
2021/12/19 08:42:54;;;;;;;26.67;25.07;;;;;;;;;;5095455;28;20198;-81
2021/12/19 08:45:21;;;;;;;26.73;25.23;;;;;;;;;;5095013;28;20189;-81
2021/12/19 08:47:49;;;;;;;24.33;23.03;;;;;;;;;;5095291;28;20198;-80
2021/12/19 08:50:16;;;;;;;29.20;27.10;;;;;;;;;;5095183;28;20679;-81
2021/12/19 08:52:44;;;;;;;26.73;24.73;;;;;;;;;;5095393;28;20237;-81
2021/12/19 08:55:11;;;;;;;27.47;25.77;;;;;;;;;;5094934;28;20190;-80
2021/12/19 08:57:38;;;;;;;26.73;25.07;;;;;;;;;;5094888;28;20198;-81
2021/12/19 09:00:05;;;;;;;25.77;24.27;;;;;;;;;;5095137;28;20281;-81
2021/12/19 09:02:31;;;;;;;27.20;25.50;;;;;;;;;;5095468;28;20260;-80
2021/12/19 09:05:00;;;;;;;24.07;22.57;;;;;;;;;;5095139;28;20221;-82
2021/12/19 09:07:26;;;;;;;28.03;25.90;;;;;;;;;;5094708;28;20732;-83
2021/12/19 09:09:53;;;;;;;29.50;26.40;;;;;;;;;;5094775;28;20229;-82
2021/12/19 09:12:20;;;;;;;26.93;25.23;;;;;;;;;;5094235;28;20268;-79
2021/12/19 09:14:46;;;;;;;27.93;25.83;;;;;;;;;;5094781;28;20216;-83
2021/12/19 09:17:13;;;;;;;24.90;23.40;;;;;;;;;;5094594;28;20240;-81
2021/12/19 09:19:41;;;;;;;24.47;23.07;;;;;;;;;;5094732;28;20190;-81
2021/12/19 09:22:09;;;;;;;25.27;23.67;;;;;;;;;;5094250;28;20581;-80
2021/12/19 09:24:36;;;;;;;23.33;21.93;;;;;;;;;;5094815;28;20269;-82
2021/12/19 09:27:03;;;;;;;23.10;21.70;;;;;;;;;;5094270;28;20670;-83
2021/12/19 09:29:30;;;;;;;27.83;25.27;;;;;;;;;;5094920;28;20196;-80
2021/12/19 09:31:57;;;;;;;24.57;22.87;;;;;;;;;;5094894;28;20257;-81
2021/12/19 09:34:23;;;;;;;29.77;27.63;;;;;;;;;;5094845;28;20190;-82
2021/12/19 09:36:50;;;;;;;27.83;25.93;;;;;;;;;;5094960;28;20194;-82
2021/12/19 09:39:19;;;;;;;28.60;26.10;;;;;;;;;;5095031;28;20277;-82
2021/12/19 09:41:47;;;;;;;31.23;28.50;;;;;;;;;;5094781;28;20338;-81
2021/12/19 09:44:15;;;;;;;28.53;26.73;;;;;;;;;;5094170;28;20236;-81
2021/12/19 09:46:44;;;;;;;25.30;23.70;;;;;;;;;;5094491;28;20194;-82
2021/12/19 09:49:12;;;;;;;23.93;22.43;;;;;;;;;;5093866;28;20201;-83
2021/12/19 09:51:39;;;;;;;29.43;27.17;;;;;;;;;;5093791;28;20261;-83
2021/12/19 09:54:06;;;;;;;28.00;25.97;;;;;;;;;;5094691;28;20200;-81
2021/12/19 09:56:34;;;;;;;27.70;26.07;;;;;;;;;;5094285;28;20249;-83
2021/12/19 09:59:01;;;;;;;30.27;27.67;;;;;;;;;;5094101;28;20194;-82
2021/12/19 10:01:28;;;;;;;28.80;27.20;;;;;;;;;;5094127;28;20647;-82
2021/12/19 10:03:54;;;;;;;31.73;30.03;;;;;;;;;;5094395;28;20229;-82
2021/12/19 10:06:22;;;;;;;31.80;30.10;;;;;;;;;;5094318;28;20198;-82
2021/12/19 10:08:52;;;;;;;36.97;33.87;;;;;;;;;;5093636;28;20240;-83
2021/12/19 10:11:32;;;;;;;32.70;30.10;;;;;;;;;;5093787;28;20213;-81
2021/12/19 10:14:00;;;;;;;38.13;32.00;;;;;;;;;;5094331;28;20292;-78
2021/12/19 10:16:28;;;;;;;37.90;34.87;;;;;;;;;;5094239;28;20198;-82
2021/12/19 10:18:55;;;;;;;35.13;32.37;;;;;;;;;;5093796;28;20251;-82
2021/12/19 10:21:22;;;;;;;31.17;29.37;;;;;;;;;;5093956;28;20206;-81
2021/12/19 10:23:49;;;;;;;27.87;26.17;;;;;;;;;;5092192;28;20252;-82
2021/12/19 10:26:16;;;;;;;25.83;24.60;;;;;;;;;;5093968;28;20280;-81
2021/12/19 10:28:49;;;;;;;27.53;26.20;;;;;;;;;;5093584;28;20672;-81
2021/12/19 10:31:17;;;;;;;28.77;27.03;;;;;;;;;;5093456;28;20246;-82
2021/12/19 10:33:44;;;;;;;30.77;28.23;;;;;;;;;;5093534;28;20198;-81
2021/12/19 10:36:11;;;;;;;23.60;22.37;;;;;;;;;;5093793;28;20202;-82
2021/12/19 10:38:39;;;;;;;30.77;28.83;;;;;;;;;;5093209;28;20205;-82
2021/12/19 10:41:13;;;;;;;27.67;26.17;;;;;;;;;;5093481;28;20243;-81
2021/12/19 10:43:44;;;;;;;26.60;25.10;;;;;;;;;;5092889;28;20189;-81
2021/12/19 10:46:11;;;;;;;22.03;20.70;;;;;;;;;;5093284;28;20193;-82
2021/12/19 10:48:39;;;;;;;24.17;22.87;;;;;;;;;;5092823;28;20693;-83
2021/12/19 10:51:07;;;;;;;26.23;24.60;;;;;;;;;;5093659;28;20256;-81
2021/12/19 10:53:35;;;;;;;26.83;25.03;;;;;;;;;;5092951;28;20691;-81
2021/12/19 10:56:03;;;;;;;24.73;23.10;;;;;;;;;;5092688;28;20645;-82
2021/12/19 10:58:34;;;;;;;26.97;25.63;;;;;;;;;;5092780;28;20280;-81
2021/12/19 11:01:10;;;;;;;23.30;21.70;;;;;;;;;;5092757;28;20656;-81
2021/12/19 11:03:38;;;;;;;23.83;22.17;;;;;;;;;;5092954;28;20569;-82
2021/12/19 11:06:16;;;;;;;20.90;19.63;;;;;;;;;;5092492;28;20190;-81
2021/12/19 11:08:43;;;;;;;25.97;24.40;;;;;;;;;;5092688;28;20194;-81
2021/12/19 11:11:09;;;;;;;31.50;28.60;;;;;;;;;;5092488;28;20193;-82
2021/12/19 11:13:36;;;;;;;23.93;22.50;;;;;;;;;;5093010;28;20221;-83
2021/12/19 11:16:03;;;;;;;24.90;23.00;;;;;;;;;;5092926;28;20250;-82
2021/12/19 11:18:30;;;;;;;24.10;23.00;;;;;;;;;;5093137;28;20198;-81
2021/12/19 11:20:57;;;;;;;24.63;22.50;;;;;;;;;;5092749;28;20198;-83
2021/12/19 11:23:27;;;;;;;24.60;22.97;;;;;;;;;;5092487;28;20228;-79
2021/12/19 11:25:54;;;;;;;29.93;27.33;;;;;;;;;;5093062;28;20201;-83
2021/12/19 11:28:21;;;;;;;23.77;22.10;;;;;;;;;;5093421;28;20194;-83
2021/12/19 11:30:48;;;;;;;23.60;22.40;;;;;;;;;;5093805;28;20245;-82
2021/12/19 11:33:20;;;;;;;26.43;24.47;;;;;;;;;;5093152;28;20221;-83
2021/12/19 11:35:48;;;;;;;26.40;24.27;;;;;;;;;;5093549;28;20185;-83
2021/12/19 11:38:18;;;;;;;29.57;27.10;;;;;;;;;;5093924;28;20190;-80
2021/12/19 11:40:46;;;;;;;22.77;21.50;;;;;;;;;;5092709;28;20197;-82
2021/12/19 11:43:14;;;;;;;23.97;22.57;;;;;;;;;;5092155;28;20232;-81
2021/12/19 11:45:45;;;;;;;26.70;24.77;;;;;;;;;;5092733;28;20194;-83
2021/12/19 11:48:19;;;;;;;21.77;20.77;;;;;;;;;;5092759;28;20193;-83
2021/12/19 11:50:50;;;;;;;25.97;23.80;;;;;;;;;;5092500;28;20672;-81
2021/12/19 11:53:21;;;;;;;28.23;25.43;;;;;;;;;;5093018;28;20722;-83
2021/12/19 11:55:50;;;;;;;25.10;23.77;;;;;;;;;;5093134;28;20233;-80
2021/12/19 11:58:24;;;;;;;20.73;19.77;;;;;;;;;;5092904;28;20193;-82
2021/12/19 12:00:54;;;;;;;26.53;24.90;;;;;;;;;;5093215;28;20187;-83
2021/12/19 12:03:21;;;;;;;26.20;24.43;;;;;;;;;;5093904;28;20202;-83
2021/12/19 12:05:49;;;;;;;24.97;23.13;;;;;;;;;;5092628;28;20205;-82
2021/12/19 12:08:16;;;;;;;21.70;20.40;;;;;;;;;;5093139;28;20623;-82
2021/12/19 12:11:01;;;;;;;25.47;23.73;;;;;;;;;;5092581;28;20652;-83
2021/12/19 12:13:30;;;;;;;24.30;23.03;;;;;;;;;;5086448;28;20232;-82
2021/12/19 12:16:04;;;;;;;24.47;22.77;;;;;;;;;;5092876;28;20193;-81
2021/12/19 12:18:32;;;;;;;30.20;27.70;;;;;;;;;;5093019;28;20574;-82
2021/12/19 12:21:20;;;;;;;27.83;25.30;;;;;;;;;;5093443;28;20200;-80
2021/12/19 12:23:51;;;;;;;32.20;29.00;;;;;;;;;;5092237;28;20236;-82
2021/12/19 12:26:26;;;;;;;27.30;25.40;;;;;;;;;;5093523;28;20193;-82
2021/12/19 12:28:54;;;;;;;25.63;24.13;;;;;;;;;;5092907;28;20193;-82
2021/12/19 12:31:21;;;;;;;26.20;24.70;;;;;;;;;;5093088;28;20672;-82
2021/12/19 12:33:47;;;;;;;28.50;26.63;;;;;;;;;;5093096;28;20279;-82
2021/12/19 12:36:15;;;;;;;26.23;24.40;;;;;;;;;;5092288;28;20282;-81
2021/12/19 12:38:45;;;;;;;31.47;28.77;;;;;;;;;;5093017;28;20190;-81
2021/12/19 12:41:26;;;;;;;26.77;25.17;;;;;;;;;;5092867;28;20193;-82
2021/12/19 12:43:55;;;;;;;23.67;22.57;;;;;;;;;;5092496;28;20190;-81
2021/12/19 12:46:22;;;;;;;28.17;26.20;;;;;;;;;;5094498;28;20224;-82
2021/12/19 12:48:53;;;;;;;29.47;27.43;;;;;;;;;;5096832;28;20202;-83
2021/12/19 12:51:25;;;;;;;27.53;25.37;;;;;;;;;;5097802;28;20659;-81
2021/12/19 12:53:53;;;;;;;25.47;23.53;;;;;;;;;;5096407;28;20217;-81
2021/12/19 12:56:22;;;;;;;30.17;27.57;;;;;;;;;;5096621;28;20194;-82
2021/12/19 12:58:50;;;;;;;21.27;20.27;;;;;;;;;;5097252;28;20198;-82
2021/12/19 13:01:20;;;;;;;28.93;26.60;;;;;;;;;;5096405;28;20675;-82
2021/12/19 13:04:12;;;;;;;29.77;26.83;;;;;;;;;;5097435;28;20187;-80
2021/12/19 13:06:41;;;;;;;23.83;22.03;;;;;;;;;;5097653;28;20209;-82
2021/12/19 13:09:09;;;;;;;23.10;21.47;;;;;;;;;;5098242;28;20197;-82
2021/12/19 13:11:36;;;;;;;22.13;20.83;;;;;;;;;;5097920;28;20233;-80
2021/12/19 13:14:10;;;;;;;23.37;21.87;;;;;;;;;;5097067;28;20225;-82
2021/12/19 13:16:42;;;;;;;32.67;29.67;;;;;;;;;;5095359;28;20225;-81
2021/12/19 13:19:09;;;;;;;29.43;26.63;;;;;;;;;;5097302;28;20225;-82
2021/12/19 13:21:51;;;;;;;22.53;21.17;;;;;;;;;;5099109;28;20197;-81
2021/12/19 13:24:20;;;;;;;23.90;22.43;;;;;;;;;;5097321;28;20226;-81
2021/12/19 13:26:46;;;;;;;24.80;22.70;;;;;;;;;;5098452;28;20639;-82
2021/12/19 13:29:19;;;;;;;22.53;21.17;;;;;;;;;;5096616;28;20220;-82
2021/12/19 13:31:48;;;;;;;24.13;22.47;;;;;;;;;;5097311;28;20688;-81
2021/12/19 13:34:15;;;;;;;30.07;27.50;;;;;;;;;;5098198;28;20230;-82
2021/12/19 13:36:41;;;;;;;24.87;22.80;;;;;;;;;;5098099;28;20232;-82
2021/12/19 13:39:17;;;;;;;24.07;22.50;;;;;;;;;;5097460;28;20277;-82
2021/12/19 13:41:43;;;;;;;27.70;25.30;;;;;;;;;;5097759;28;20196;-80
2021/12/19 13:44:10;;;;;;;26.93;24.80;;;;;;;;;;5097202;28;20194;-81
2021/12/19 13:46:37;;;;;;;25.77;23.33;;;;;;;;;;5097998;28;20228;-77
2021/12/19 13:49:05;;;;;;;24.77;22.20;;;;;;;;;;5097620;28;20194;-80
2021/12/19 13:51:34;;;;;;;22.87;21.23;;;;;;;;;;5097626;28;20194;-80
2021/12/19 13:54:03;;;;;;;26.37;24.03;;;;;;;;;;5096471;28;20225;-81
2021/12/19 13:56:31;;;;;;;29.77;26.57;;;;;;;;;;5096656;28;20201;-82
2021/12/19 13:58:59;;;;;;;24.27;22.03;;;;;;;;;;5098236;28;20198;-81
2021/12/19 14:01:28;;;;;;;24.80;22.87;;;;;;;;;;5096626;28;20197;-81
2021/12/19 14:03:56;;;;;;;23.77;21.90;;;;;;;;;;5097102;28;20206;-81
2021/12/19 14:06:25;;;;;;;23.80;22.50;;;;;;;;;;5095919;28;20284;-81
2021/12/19 14:08:53;;;;;;;28.27;25.20;;;;;;;;;;5097906;28;20194;-82
2021/12/19 14:11:20;;;;;;;21.70;19.80;;;;;;;;;;5098226;28;20201;-81
2021/12/19 14:14:03;;;;;;;21.93;20.30;;;;;;;;;;5096791;28;20308;-81
2021/12/19 14:16:40;;;;;;;20.97;19.87;;;;;;;;;;5097844;28;20213;-82
2021/12/19 14:19:17;;;;;;;23.00;21.40;;;;;;;;;;5097561;28;20603;-81
2021/12/19 14:21:45;;;;;;;22.80;21.23;;;;;;;;;;5095389;28;20190;-82
2021/12/19 14:24:17;;;;;;;25.93;23.70;;;;;;;;;;5096455;28;20615;-81
2021/12/19 14:26:44;;;;;;;30.83;27.07;;;;;;;;;;5095780;28;20190;-81
2021/12/19 14:29:18;;;;;;;29.33;26.23;;;;;;;;;;5095270;28;20281;-82
2021/12/19 14:31:48;;;;;;;26.47;22.30;;;;;;;;;;5097391;28;20193;-81
2021/12/19 14:34:23;;;;;;;22.27;20.13;;;;;;;;;;5096421;28;20312;-81
2021/12/19 14:36:51;;;;;;;24.43;22.47;;;;;;;;;;5095188;28;20221;-81
2021/12/19 14:39:21;;;;;;;21.87;20.67;;;;;;;;;;5095743;28;20198;-82
2021/12/19 14:41:48;;;;;;;26.07;23.80;;;;;;;;;;5095085;28;20197;-82
2021/12/19 14:44:19;;;;;;;24.97;23.23;;;;;;;;;;5097121;28;20190;-80
2021/12/19 14:46:45;;;;;;;18.17;17.37;;;;;;;;;;5097225;28;20197;-82
2021/12/19 14:49:13;;;;;;;26.63;24.13;;;;;;;;;;5095503;28;20233;-82
2021/12/19 14:51:39;;;;;;;24.97;22.37;;;;;;;;;;5096147;28;20286;-80
2021/12/19 14:54:08;;;;;;;23.47;20.83;;;;;;;;;;5096106;28;20315;-82
2021/12/19 14:56:35;;;;;;;26.37;24.07;;;;;;;;;;5096478;28;20189;-82
2021/12/19 14:59:03;;;;;;;22.97;21.33;;;;;;;;;;5096385;28;20225;-78
2021/12/19 15:01:31;;;;;;;21.10;19.80;;;;;;;;;;5094077;28;20229;-81
2021/12/19 15:04:00;;;;;;;21.20;20.00;;;;;;;;;;5095771;28;20194;-81
2021/12/19 15:06:27;;;;;;;26.47;24.40;;;;;;;;;;5096058;28;20237;-82
2021/12/19 15:08:55;;;;;;;20.70;19.00;;;;;;;;;;5095722;28;20189;-82
2021/12/19 15:11:23;;;;;;;19.90;18.80;;;;;;;;;;5098152;28;20679;-80
2021/12/19 15:13:51;;;;;;;23.80;21.30;;;;;;;;;;5094893;28;20664;-82
2021/12/19 15:16:17;;;;;;;25.07;23.13;;;;;;;;;;5096229;28;20248;-81